Terminal Aerodrome Forecast
Issued by NWS Charleston, WV

Home | Current Version | Previous Version | Text Only | Print | Product List | Glossary On
Versions: 1 2 3 4 5 6 7 8 9 10 11 12 13 14 15 16 17 18 19 20 21 22 23 24 25 26 27 28 29 30 31
504
FTUS41 KRLX 301720
TAFEKN
TAF
KEKN 301720Z 3018/3118 25005KT P6SM VCTS BKN035CB
     FM310800 VRB02KT 4SM BR BKN050
     FM310900 VRB02KT 3SM BR SCT001 BKN015
     FM311100 VRB02KT 1/2SM FG BKN001
     FM311300 VRB03KT 4SM BR BKN008
     FM311400 VRB03KT P6SM BKN045=

USA.gov is the U.S. government's official web portal to all federal, state and local government web resources and services.